createdAt,value
2019-04-20T00:00:44.955Z,41.46
2019-04-20T00:01:40.999Z,41.55
2019-04-20T00:02:44.067Z,41.55
2019-04-20T00:03:43.233Z,41.74
2019-04-20T00:04:41.117Z,41.74
2019-04-20T00:05:41.393Z,41.55
2019-04-20T00:06:47.939Z,41.74
2019-04-20T00:07:41.761Z,41.74
2019-04-20T00:08:42.682Z,41.74
2019-04-20T00:09:45.429Z,42.03
2019-04-20T00:10:47.356Z,41.94
2019-04-20T00:11:50.233Z,41.55
2019-04-20T00:12:54.507Z,41.74
2019-04-20T00:13:47.733Z,41.65
2019-04-20T00:14:41.310Z,41.65
2019-04-20T00:15:40.925Z,41.65
2019-04-20T00:16:40.303Z,41.36
2019-04-20T00:17:46.003Z,41.46
2019-04-20T00:18:47.960Z,41.55
2019-04-20T00:19:45.377Z,41.27
2019-04-20T00:20:40.784Z,41.65
2019-04-20T00:21:47.393Z,41.94
2019-04-20T00:22:46.111Z,41.84
2019-04-20T00:23:43.183Z,41.84
2019-04-20T00:24:41.079Z,42.03
2019-04-20T00:25:53.135Z,41.84
2019-04-20T00:27:59.689Z,41.94
2019-04-20T00:28:55.983Z,42.03
2019-04-20T00:29:54.885Z,42.03
2019-04-20T00:31:04.613Z,42.32
2019-04-20T00:31:48.954Z,42.60
2019-04-20T00:32:54.347Z,42.70
2019-04-20T00:33:51.619Z,42.70
2019-04-20T00:34:43.282Z,42.41
2019-04-20T00:35:40.168Z,42.90
2019-04-20T00:36:39.377Z,42.60
2019-04-20T00:37:40.219Z,42.60
2019-04-20T00:38:45.613Z,42.32
2019-04-20T00:39:40.489Z,42.90
2019-04-20T00:40:39.301Z,42.99
2019-04-20T00:41:45.135Z,42.68
2019-04-20T00:42:45.160Z,42.32
2019-04-20T00:43:41.737Z,42.22
2019-04-20T00:44:41.270Z,42.51
2019-04-20T00:45:46.943Z,42.60
2019-04-20T00:46:51.309Z,42.58
2019-04-20T00:47:47.757Z,42.58
2019-04-20T00:48:47.336Z,42.70
2019-04-20T00:49:52.758Z,43.18
2019-04-20T00:50:48.802Z,43.18
2019-04-20T00:52:05.263Z,43.08
2019-04-20T00:52:54.269Z,42.80
2019-04-20T00:53:43.326Z,42.60
2019-04-20T00:54:39.089Z,42.60
2019-04-20T00:55:38.347Z,42.51
2019-04-20T00:56:39.263Z,43.26
2019-04-20T00:57:49.564Z,42.49
2019-04-20T00:58:53.314Z,42.68
2019-04-20T00:59:59.785Z,43.16
2019-04-20T01:01:04.113Z,42.97
2019-04-20T01:02:00.289Z,42.68
2019-04-20T01:02:50.734Z,42.87
2019-04-20T01:03:52.111Z,42.87
2019-04-20T01:04:58.049Z,42.87
2019-04-20T01:06:02.273Z,42.87
2019-04-20T01:06:50.060Z,43.16
2019-04-20T01:07:45.559Z,43.16
2019-04-20T01:08:38.077Z,43.44
2019-04-20T01:09:37.653Z,43.54
2019-04-20T01:10:44.810Z,43.54
2019-04-20T01:11:42.195Z,43.63
2019-04-20T01:12:40.481Z,43.83
2019-04-20T01:13:45.941Z,44.02
2019-04-20T01:14:46.234Z,43.92
2019-04-20T01:15:48.858Z,44.02
2019-04-20T01:16:45.194Z,44.02
2019-04-20T01:17:37.963Z,43.92
2019-04-20T01:18:37.242Z,43.92
2019-04-20T01:19:37.195Z,43.90
2019-04-20T01:20:37.109Z,44.29
2019-04-20T01:21:38.279Z,44.48
2019-04-20T01:22:45.499Z,44.29
2019-04-20T01:23:43.774Z,45.15
2019-04-20T01:24:40.468Z,44.48
2019-04-20T01:25:40.975Z,44.38
2019-04-20T01:26:47.210Z,44.57
2019-04-20T01:27:51.312Z,45.24
2019-04-20T01:28:51.201Z,44.86
2019-04-20T01:29:43.889Z,44.57
2019-04-20T01:30:43.229Z,44.67
2019-04-20T01:31:52.699Z,44.48
2019-04-20T01:32:55.423Z,44.19
2019-04-20T01:33:46.166Z,45.05
2019-04-20T01:34:50.209Z,45.15
2019-04-20T01:35:50.165Z,45.15
2019-04-20T01:36:50.514Z,44.67
2019-04-20T01:37:54.385Z,45.34
2019-04-20T01:38:54.676Z,45.24
2019-04-20T01:39:43.205Z,45.34
2019-04-20T01:40:36.208Z,45.81
2019-04-20T01:41:37.154Z,45.91
2019-04-20T01:42:36.160Z,46.10
2019-04-20T01:43:37.398Z,45.62
2019-04-20T01:44:41.226Z,45.72
2019-04-20T01:45:39.150Z,45.91
2019-04-20T01:46:39.156Z,45.24
2019-04-20T01:47:39.754Z,45.62
2019-04-20T01:48:39.534Z,46.10
2019-04-20T01:49:37.398Z,45.72
2019-04-20T01:50:38.386Z,45.81
2019-04-20T01:51:44.013Z,46.48
2019-04-20T01:52:50.801Z,46.10
2019-04-20T01:53:55.973Z,46.10
2019-04-20T01:54:56.704Z,46.17
2019-04-20T01:55:53.045Z,46.46
2019-04-20T01:56:47.694Z,46.56
2019-04-20T01:57:54.937Z,46.46
2019-04-20T01:58:52.394Z,46.58
2019-04-20T01:59:49.218Z,46.84
2019-04-20T02:00:39.804Z,46.46
2019-04-20T02:01:38.052Z,46.46
2019-04-20T02:02:43.806Z,47.03
2019-04-20T02:03:40.539Z,47.32
2019-04-20T02:04:40.311Z,47.99
2019-04-20T02:05:37.091Z,48.09
2019-04-20T02:06:39.954Z,48.75
2019-04-20T02:07:41.667Z,48.47
2019-04-20T02:08:35.808Z,49.21
2019-04-20T02:09:43.365Z,50.16
2019-04-20T02:10:41.652Z,49.59
2019-04-20T02:11:39.532Z,49.66
2019-04-20T02:12:37.280Z,51.19
2019-04-20T02:13:43.664Z,50.81
2019-04-20T02:14:42.591Z,50.90
2019-04-20T02:15:41.483Z,51.29
2019-04-20T02:16:41.890Z,51.57
2019-04-20T02:17:40.760Z,51.29
2019-04-20T02:18:44.086Z,51.67
2019-04-20T02:19:52.202Z,51.83
2019-04-20T02:20:54.598Z,52.31
2019-04-20T02:21:51.665Z,52.79
2019-04-20T02:22:51.548Z,52.79
2019-04-20T02:23:45.804Z,52.79
2019-04-20T02:24:34.044Z,53.27
2019-04-20T02:25:35.390Z,53.45
2019-04-20T02:26:34.746Z,53.55
2019-04-20T02:27:40.874Z,53.74
2019-04-20T02:29:00.873Z,53.84
2019-04-20T02:30:04.466Z,53.81
2019-04-20T02:31:26.875Z,53.62
2019-04-20T02:32:10.370Z,54.29
2019-04-20T02:33:16.721Z,53.72
2019-04-20T02:34:13.169Z,53.53
2019-04-20T02:35:09.689Z,53.72
2019-04-20T02:37:20.586Z,54.10
2019-04-20T02:38:10.552Z,54.29
2019-04-20T02:39:21.113Z,54.77
2019-04-20T02:41:12.048Z,55.34
2019-04-20T02:42:08.828Z,55.43
2019-04-20T02:43:09.584Z,54.67
2019-04-20T02:44:14.555Z,54.48
2019-04-20T02:45:27.807Z,55.21
2019-04-20T02:45:57.561Z,55.24
2019-04-20T02:47:07.501Z,55.02
2019-04-20T02:48:14.003Z,55.31
2019-04-20T02:49:12.926Z,55.69
2019-04-20T02:50:05.506Z,56.20
2019-04-20T02:52:04.445Z,56.36
2019-04-20T02:56:04.862Z,57.03
2019-04-20T02:57:04.626Z,57.12
2019-04-20T02:58:05.132Z,58.17
2019-04-20T02:59:30.817Z,58.17
2019-04-20T03:00:05.522Z,58.36
2019-04-20T03:00:52.373Z,58.07
2019-04-20T03:01:53.477Z,58.46
2019-04-20T03:02:46.128Z,58.04
2019-04-20T03:03:39.093Z,58.72
2019-04-20T03:04:40.034Z,59.00
2019-04-20T03:05:42.300Z,59.00
2019-04-20T03:06:48.446Z,59.67
2019-04-20T03:07:52.468Z,59.28
2019-04-20T03:08:59.921Z,59.00
2019-04-20T03:09:54.099Z,60.33
2019-04-20T03:11:03.699Z,60.14
2019-04-20T03:12:01.914Z,60.14
2019-04-20T03:12:50.718Z,61.00
2019-04-20T03:13:51.960Z,60.69
2019-04-20T03:14:47.316Z,61.10
2019-04-20T03:15:51.871Z,60.88
2019-04-20T03:16:54.134Z,61.93
2019-04-20T03:17:51.096Z,61.83
2019-04-20T03:18:51.173Z,61.35
2019-04-20T03:19:44.825Z,60.88
2019-04-20T03:20:56.057Z,61.93
2019-04-20T03:21:58.579Z,62.02
2019-04-20T03:23:11.681Z,62.02
2019-04-20T03:23:59.661Z,61.45
2019-04-20T03:24:56.578Z,61.25
2019-04-20T03:25:55.490Z,61.54
2019-04-20T03:26:53.617Z,62.02
2019-04-20T03:27:46.125Z,61.83
2019-04-20T03:28:50.140Z,62.40
2019-04-20T03:29:52.534Z,62.68
2019-04-20T03:31:22.921Z,62.49
2019-04-20T03:32:14.971Z,62.30
2019-04-20T03:34:13.588Z,62.37
2019-04-20T03:35:59.876Z,62.27
2019-04-20T03:36:59.335Z,62.56
2019-04-20T03:37:52.469Z,63.70
2019-04-20T03:38:47.937Z,63.70
2019-04-20T03:39:46.640Z,63.42
2019-04-20T03:40:46.735Z,64.37
2019-04-20T03:41:37.697Z,63.51
2019-04-20T03:42:30.883Z,63.89
2019-04-20T03:43:30.793Z,64.47
2019-04-20T03:44:32.940Z,64.18
2019-04-20T03:45:39.577Z,64.65
2019-04-20T03:46:36.633Z,63.60
2019-04-20T03:47:38.813Z,64.56
2019-04-20T03:48:46.730Z,65.03
2019-04-20T03:49:54.889Z,65.13
2019-04-20T03:50:50.429Z,65.32
2019-04-20T03:51:55.910Z,65.51
2019-04-20T03:52:49.346Z,65.03
2019-04-20T03:53:50.318Z,65.61
2019-04-20T03:54:41.561Z,66.37
2019-04-20T03:55:44.818Z,65.32
2019-04-20T03:56:51.774Z,65.99
2019-04-20T03:57:54.092Z,66.14
2019-04-20T03:58:47.306Z,66.91
2019-04-20T03:59:48.489Z,67.67
2019-04-20T04:00:45.917Z,66.72
2019-04-20T04:02:08.746Z,67.67
2019-04-20T04:03:03.538Z,68.24
2019-04-20T04:03:53.068Z,68.05
2019-04-20T04:04:53.693Z,68.24
2019-04-20T04:05:44.615Z,69.10
2019-04-20T04:06:39.275Z,68.59
2019-04-20T04:07:38.128Z,68.52
2019-04-20T04:08:36.406Z,68.90
2019-04-20T04:09:37.050Z,68.81
2019-04-20T04:10:48.541Z,68.43
2019-04-20T04:11:44.503Z,68.43
2019-04-20T04:12:35.096Z,68.24
2019-04-20T04:13:29.105Z,68.62
2019-04-20T04:14:28.462Z,68.52
2019-04-20T04:15:29.379Z,68.62
2019-04-20T04:16:39.034Z,68.62
2019-04-20T04:17:34.923Z,68.24
2019-04-20T04:18:35.434Z,68.33
2019-04-20T04:19:33.239Z,69.38
2019-04-20T04:20:38.783Z,68.81
2019-04-20T04:21:45.788Z,69.19
2019-04-20T04:22:43.357Z,69.76
2019-04-20T04:23:44.552Z,69.76
2019-04-20T04:24:36.778Z,69.48
2019-04-20T04:25:39.710Z,69.35
2019-04-20T04:26:42.744Z,68.96
2019-04-20T04:27:41.698Z,69.63
2019-04-20T04:28:44.812Z,70.14
2019-04-20T04:29:49.498Z,70.20
2019-04-20T04:30:40.559Z,71.95
2019-04-20T04:31:57.750Z,72.42
2019-04-20T04:33:12.434Z,72.05
2019-04-20T04:34:44.721Z,73.47
2019-04-20T04:35:43.926Z,73.95
2019-04-20T04:36:52.642Z,72.90
2019-04-20T04:37:45.980Z,73.19
2019-04-20T04:38:48.169Z,73.85
2019-04-20T04:39:49.059Z,72.81
2019-04-20T04:41:00.750Z,72.81
2019-04-20T04:41:55.869Z,72.77
2019-04-20T04:42:46.795Z,73.53
2019-04-20T04:43:44.406Z,73.63
2019-04-20T04:44:39.994Z,73.15
2019-04-20T04:45:29.722Z,73.25
2019-04-20T04:46:26.928Z,74.20
2019-04-20T04:47:26.591Z,75.05
2019-04-20T04:48:32.078Z,75.62
2019-04-20T04:49:34.464Z,77.49
2019-04-20T04:50:29.494Z,77.77
2019-04-20T04:51:38.478Z,77.97
2019-04-20T04:52:37.874Z,77.87
2019-04-20T04:53:40.697Z,78.86
2019-04-20T04:54:37.517Z,79.39
2019-04-20T04:55:38.107Z,79.52
2019-04-20T04:56:27.459Z,80.00
2019-04-20T04:57:26.387Z,79.68
2019-04-20T04:58:26.044Z,79.33
2019-04-20T04:59:25.958Z,78.86
2019-04-20T05:00:29.381Z,78.96
2019-04-20T05:01:29.418Z,78.38
2019-04-20T05:02:32.531Z,78.29
2019-04-20T05:03:44.970Z,77.81
2019-04-20T05:04:49.618Z,76.96
2019-04-20T05:05:42.532Z,77.34
2019-04-20T05:06:41.334Z,78.19
2019-04-20T05:07:39.790Z,78.38
2019-04-20T05:08:36.050Z,77.05
2019-04-20T05:09:25.553Z,76.29
2019-04-20T05:10:25.452Z,76.96
2019-04-20T05:11:25.848Z,76.86
2019-04-20T05:12:28.874Z,77.34
2019-04-20T05:13:26.777Z,76.86
2019-04-20T05:14:38.071Z,76.01
2019-04-20T05:15:37.317Z,76.48
2019-04-20T05:16:45.170Z,76.29
2019-04-20T05:17:43.470Z,77.81
2019-04-20T05:18:55.300Z,76.57
2019-04-20T05:19:47.854Z,76.96
2019-04-20T05:20:47.504Z,76.10
2019-04-20T05:21:50.006Z,76.67
2019-04-20T05:22:42.875Z,76.67
2019-04-20T05:23:37.764Z,76.67
2019-04-20T05:24:38.227Z,77.15
2019-04-20T05:25:44.499Z,77.72
2019-04-20T05:26:44.843Z,77.34
2019-04-20T05:27:46.565Z,76.67
2019-04-20T05:28:37.090Z,76.48
2019-04-20T05:29:29.870Z,76.01
2019-04-20T05:30:24.532Z,75.62
2019-04-20T05:31:30.918Z,77.15
2019-04-20T05:32:35.774Z,77.53
2019-04-20T05:33:36.427Z,77.66
2019-04-20T05:34:47.997Z,77.19
2019-04-20T05:35:43.417Z,76.48
2019-04-20T05:36:44.869Z,76.48
2019-04-20T05:37:49.870Z,77.56
2019-04-20T05:38:47.133Z,78.52
2019-04-20T05:39:44.470Z,78.33
2019-04-20T05:40:46.833Z,77.56
2019-04-20T05:41:42.883Z,78.23
2019-04-20T05:42:44.430Z,77.76
2019-04-20T05:43:45.846Z,78.52
2019-04-20T05:44:47.340Z,77.85
2019-04-20T05:45:39.977Z,77.95
2019-04-20T05:46:42.423Z,77.85
2019-04-20T05:47:42.862Z,78.42
2019-04-20T05:48:48.789Z,78.90
2019-04-20T05:49:40.378Z,78.99
2019-04-20T05:50:42.404Z,78.71
2019-04-20T05:51:44.618Z,79.09
2019-04-20T05:52:52.124Z,78.52
2019-04-20T05:53:48.814Z,78.42
2019-04-20T05:54:47.315Z,77.66
2019-04-20T05:55:43.212Z,77.66
2019-04-20T05:57:02.760Z,77.28
2019-04-20T05:57:42.284Z,77.37
2019-04-20T05:58:47.874Z,77.61
2019-04-20T05:59:53.156Z,78.65
2019-04-20T06:00:49.809Z,78.94
2019-04-20T06:01:49.906Z,78.46
2019-04-20T06:02:45.122Z,77.80
2019-04-20T06:03:39.746Z,78.17
2019-04-20T06:04:54.553Z,77.42
2019-04-20T06:05:52.536Z,77.22
2019-04-20T06:06:44.986Z,77.32
2019-04-20T06:07:42.343Z,77.13
2019-04-20T06:08:58.008Z,76.84
2019-04-20T06:09:42.239Z,76.27
2019-04-20T06:10:48.003Z,76.37
2019-04-20T06:12:01.355Z,76.27
2019-04-20T06:12:40.341Z,76.27
2019-04-20T06:13:36.880Z,76.18
2019-04-20T06:14:39.519Z,75.60
2019-04-20T06:15:43.225Z,75.60
2019-04-20T06:16:46.834Z,76.08
2019-04-20T06:17:46.352Z,76.27
2019-04-20T06:18:37.282Z,76.46
2019-04-20T06:19:42.208Z,76.79
2019-04-20T06:20:44.774Z,76.88
2019-04-20T06:21:42.673Z,76.31
2019-04-20T06:22:42.745Z,76.21
2019-04-20T06:23:47.934Z,75.93
2019-04-20T06:24:44.910Z,76.21
2019-04-20T06:25:53.204Z,75.93
2019-04-20T06:26:50.297Z,75.55
2019-04-20T06:27:45.171Z,75.64
2019-04-20T06:28:35.407Z,76.03
2019-04-20T06:29:42.431Z,76.03
2019-04-20T06:30:37.176Z,75.93
2019-04-20T06:31:41.020Z,75.93
2019-04-20T06:32:38.740Z,76.03
2019-04-20T06:34:13.264Z,74.40
2019-04-20T06:34:46.862Z,74.31
2019-04-20T06:36:00.934Z,74.98
2019-04-20T06:36:47.200Z,74.82
2019-04-20T06:37:51.009Z,75.11
2019-04-20T06:39:41.515Z,74.54
2019-04-20T06:42:03.319Z,74.82
2019-04-20T06:42:46.022Z,74.44
2019-04-20T06:43:50.529Z,74.06
2019-04-20T06:44:57.651Z,74.35
2019-04-20T06:45:51.220Z,76.25
2019-04-20T06:46:48.552Z,74.73
2019-04-20T06:47:48.562Z,74.44
2019-04-20T06:48:49.715Z,75.11
2019-04-20T06:49:56.495Z,74.44
2019-04-20T06:50:38.489Z,74.35
2019-04-20T06:51:42.734Z,73.77
2019-04-20T06:52:37.376Z,73.49
2019-04-20T06:53:45.558Z,73.39
2019-04-20T06:54:38.270Z,73.58
2019-04-20T06:55:45.199Z,73.52
2019-04-20T06:56:42.542Z,74.29
2019-04-20T06:57:43.491Z,74.38
2019-04-20T06:59:00.073Z,75.34
2019-04-20T06:59:42.943Z,75.15
2019-04-20T07:00:41.820Z,74.86
2019-04-20T07:01:51.511Z,76.10
2019-04-20T07:02:41.533Z,76.10
2019-04-20T07:03:51.350Z,74.48
2019-04-20T07:05:39.066Z,74.77
2019-04-20T07:07:45.135Z,73.56
2019-04-20T07:09:55.633Z,72.09
2019-04-20T07:10:46.943Z,71.94
2019-04-20T07:11:44.348Z,72.42
2019-04-20T07:12:39.893Z,72.61
2019-04-20T07:13:30.864Z,72.51
2019-04-20T07:14:34.522Z,72.42
2019-04-20T07:15:33.626Z,72.32
2019-04-20T07:16:40.873Z,72.51
2019-04-20T07:17:57.625Z,72.55
2019-04-20T07:18:48.280Z,72.07
2019-04-20T07:19:39.119Z,71.50
2019-04-20T07:20:46.435Z,72.26
2019-04-20T07:21:57.354Z,71.69
2019-04-20T07:22:37.486Z,71.59
2019-04-20T07:23:41.906Z,71.88
2019-04-20T07:24:48.926Z,70.83
2019-04-20T07:25:44.704Z,70.73
2019-04-20T07:26:46.332Z,70.64
2019-04-20T07:27:41.541Z,70.54
2019-04-20T07:28:45.086Z,69.87
2019-04-20T07:29:40.723Z,70.39
2019-04-20T07:30:41.893Z,69.91
2019-04-20T07:31:38.012Z,69.72
2019-04-20T07:32:49.847Z,69.62
2019-04-20T07:33:39.399Z,68.48
2019-04-20T07:34:38.781Z,69.24
2019-04-20T07:35:31.876Z,69.27
2019-04-20T07:36:40.040Z,69.85
2019-04-20T07:38:10.299Z,70.42
2019-04-20T07:38:40.216Z,70.52
2019-04-20T07:39:40.655Z,70.33
2019-04-20T07:40:42.021Z,70.27
2019-04-20T07:41:47.947Z,69.50
2019-04-20T07:42:40.992Z,70.07
2019-04-20T07:43:50.303Z,69.50
2019-04-20T07:44:47.238Z,68.74
2019-04-20T07:45:33.052Z,68.68
2019-04-20T07:46:46.865Z,69.44
2019-04-20T07:47:42.541Z,70.11
2019-04-20T07:48:40.695Z,68.77
2019-04-20T07:49:34.819Z,68.90
2019-04-20T07:50:32.139Z,68.04
2019-04-20T07:51:26.034Z,67.69
2019-04-20T07:52:24.372Z,67.02
2019-04-20T07:53:33.214Z,66.19
2019-04-20T07:54:50.803Z,65.52
2019-04-20T07:55:46.039Z,65.33
2019-04-20T07:56:42.574Z,65.26
2019-04-20T07:57:35.390Z,64.79
2019-04-20T07:58:29.492Z,64.22
2019-04-20T07:59:28.876Z,63.48
2019-04-20T08:01:48.645Z,61.72
2019-04-20T08:02:42.575Z,60.38
2019-04-20T08:03:38.049Z,59.86
2019-04-20T08:04:34.097Z,59.31
2019-04-20T08:05:30.758Z,57.90
2019-04-20T08:06:23.463Z,58.02
2019-04-20T08:07:17.905Z,56.87
2019-04-20T08:08:33.383Z,55.26
2019-04-20T08:09:25.975Z,54.80
2019-04-20T08:10:34.024Z,53.48
2019-04-20T08:11:47.213Z,52.91
2019-04-20T08:12:41.696Z,52.52
2019-04-20T08:13:45.788Z,53.19
2019-04-20T08:14:40.975Z,52.42
2019-04-20T08:15:44.517Z,52.45
2019-04-20T08:16:58.624Z,51.61
2019-04-20T08:17:46.466Z,51.12
2019-04-20T08:18:41.212Z,50.38
2019-04-20T08:19:35.584Z,49.63
2019-04-20T08:20:32.984Z,48.69
2019-04-20T08:21:38.709Z,47.91
2019-04-20T08:22:34.183Z,47.45
2019-04-20T08:23:33.560Z,46.80
2019-04-20T08:24:32.713Z,46.03
2019-04-20T08:25:27.707Z,46.51
2019-04-20T08:26:24.726Z,45.93
2019-04-20T08:27:16.640Z,45.37
2019-04-20T08:28:23.307Z,45.30
2019-04-20T08:29:26.618Z,44.93
2019-04-20T08:30:35.301Z,43.99
2019-04-20T08:31:30.097Z,42.07
2019-04-20T08:32:32.518Z,40.25
2019-04-20T08:33:34.975Z,40.54
2019-04-20T08:35:42.303Z,40.77
2019-04-20T08:36:39.166Z,39.43
2019-04-20T08:37:34.421Z,39.55
2019-04-20T08:38:58.023Z,37.70
2019-04-20T08:39:45.111Z,37.99
2019-04-20T08:40:39.888Z,37.43
2019-04-20T08:41:30.155Z,36.24
2019-04-20T08:42:47.731Z,35.45
2019-04-20T08:43:46.838Z,36.30
2019-04-20T08:44:55.179Z,36.99
2019-04-20T08:45:36.171Z,37.86
2019-04-20T08:46:47.732Z,37.96
2019-04-20T08:48:32.897Z,36.24
2019-04-20T08:49:37.804Z,34.08
2019-04-20T08:50:35.609Z,33.49
2019-04-20T08:51:44.977Z,32.81
2019-04-20T08:52:55.441Z,29.68
2019-04-20T08:53:36.879Z,30.05
2019-04-20T08:54:31.192Z,31.87
2019-04-20T08:55:28.147Z,35.38
2019-04-20T08:56:25.489Z,35.67
2019-04-20T08:57:14.086Z,36.95
2019-04-20T08:58:14.023Z,37.55
2019-04-20T08:59:14.034Z,37.76
2019-04-20T09:00:19.151Z,35.43
2019-04-20T09:01:18.410Z,35.32
2019-04-20T09:02:16.978Z,35.41
2019-04-20T09:03:21.953Z,34.93
2019-04-20T09:04:22.006Z,36.21
2019-04-20T09:05:32.927Z,37.37
2019-04-20T09:06:26.346Z,35.84
2019-04-20T09:07:20.174Z,35.43
2019-04-20T09:08:21.267Z,35.24
2019-04-20T09:10:34.351Z,35.82
2019-04-20T09:11:40.004Z,36.13
2019-04-20T09:12:33.255Z,36.15
2019-04-20T09:13:24.198Z,35.57
2019-04-20T09:14:14.160Z,35.47
2019-04-20T09:15:14.663Z,34.88
2019-04-20T09:16:13.297Z,34.98
2019-04-20T09:17:22.984Z,36.34
2019-04-20T09:18:22.852Z,37.32
2019-04-20T09:19:19.921Z,35.97
2019-04-20T09:20:22.838Z,36.46
2019-04-20T09:21:24.244Z,36.26
2019-04-20T09:22:26.721Z,36.57
2019-04-20T09:23:26.757Z,35.70
2019-04-20T09:24:34.663Z,35.89
2019-04-20T09:26:32.810Z,34.16
2019-04-20T09:27:22.823Z,33.96
2019-04-20T09:28:23.452Z,34.56
2019-04-20T09:29:27.387Z,33.59
2019-04-20T09:30:25.868Z,33.70
2019-04-20T09:31:25.631Z,33.33
2019-04-20T09:32:28.636Z,28.47
2019-04-20T09:33:28.908Z,26.13
2019-04-20T09:34:27.421Z,23.78
2019-04-20T09:35:33.757Z,25.52
2019-04-20T09:36:30.384Z,25.43
2019-04-20T09:37:29.712Z,26.12
2019-04-20T09:38:29.989Z,24.66
2019-04-20T09:39:21.361Z,24.06
2019-04-20T09:40:30.992Z,23.36
2019-04-20T09:41:35.345Z,21.79
2019-04-20T09:42:12.249Z,22.44
2019-04-20T09:43:15.422Z,22.81
2019-04-20T09:44:13.401Z,23.75
2019-04-20T09:45:18.106Z,25.58
2019-04-20T09:46:12.091Z,25.98
2019-04-20T09:47:12.335Z,26.07
2019-04-20T09:48:19.514Z,24.61
2019-04-20T09:49:20.625Z,25.96
2019-04-20T09:50:29.316Z,24.90
2019-04-20T09:51:33.353Z,25.27
2019-04-20T09:52:27.008Z,25.26
2019-04-20T09:53:24.562Z,26.72
2019-04-20T09:54:34.049Z,26.04
2019-04-20T09:55:24.415Z,27.11
2019-04-20T09:56:24.325Z,25.76
2019-04-20T09:57:32.170Z,27.79
2019-04-20T09:58:21.353Z,25.95
2019-04-20T09:59:31.879Z,26.62
2019-04-20T10:00:25.682Z,25.24
2019-04-20T10:01:22.683Z,27.17
2019-04-20T10:02:18.802Z,26.99
2019-04-20T10:03:12.813Z,25.93
2019-04-20T10:04:11.378Z,27.00
2019-04-20T10:05:11.605Z,27.00
2019-04-20T10:06:11.690Z,26.52
2019-04-20T10:07:16.253Z,24.87
2019-04-20T10:08:11.776Z,26.72
2019-04-20T10:09:11.608Z,27.81
2019-04-20T10:10:21.450Z,28.20
2019-04-20T10:11:11.782Z,28.72
2019-04-20T10:12:11.290Z,27.19
2019-04-20T10:13:11.270Z,26.14
2019-04-20T10:14:12.242Z,26.36
2019-04-20T10:15:17.698Z,25.12
2019-04-20T10:16:11.356Z,23.85
2019-04-20T10:17:11.869Z,25.62
2019-04-20T10:18:11.965Z,25.43
2019-04-20T10:19:11.957Z,23.88
2019-04-20T10:20:17.607Z,24.48
2019-04-20T10:21:11.766Z,22.41
2019-04-20T10:22:10.922Z,23.19
2019-04-20T10:23:10.633Z,23.40
2019-04-20T10:24:10.697Z,22.14
2019-04-20T10:25:10.805Z,22.05
2019-04-20T10:26:10.509Z,22.24
2019-04-20T10:27:10.609Z,21.86
2019-04-20T10:28:11.681Z,20.78
2019-04-20T10:29:10.391Z,20.36
2019-04-20T10:30:10.516Z,20.74
2019-04-20T10:31:10.678Z,21.99
2019-04-20T10:32:14.085Z,22.48
2019-04-20T10:33:10.267Z,21.69
2019-04-20T10:34:11.549Z,21.37
2019-04-20T10:35:13.100Z,24.38
2019-04-20T10:36:10.139Z,26.43
2019-04-20T10:37:11.424Z,24.40
2019-04-20T10:38:11.280Z,24.12
2019-04-20T10:39:10.889Z,24.82
2019-04-20T10:40:11.366Z,23.07
2019-04-20T10:41:16.617Z,23.57
2019-04-20T10:42:10.164Z,23.57
2019-04-20T10:43:10.234Z,23.29
2019-04-20T10:44:11.196Z,22.22
2019-04-20T10:45:10.870Z,22.52
2019-04-20T10:46:10.989Z,22.81
2019-04-20T10:47:09.709Z,22.53
2019-04-20T10:48:10.653Z,22.53
2019-04-20T10:49:09.879Z,23.90
2019-04-20T10:50:09.597Z,24.30
2019-04-20T10:51:10.701Z,23.33
2019-04-20T10:52:09.822Z,22.94
2019-04-20T10:53:09.954Z,21.19
2019-04-20T10:54:09.486Z,21.97
2019-04-20T10:55:10.495Z,21.30
2019-04-20T10:56:09.643Z,21.39
2019-04-20T10:57:09.854Z,21.39
2019-04-20T10:58:09.424Z,21.59
2019-04-20T10:59:09.766Z,21.07
2019-04-20T11:00:10.001Z,19.98
2019-04-20T11:01:09.586Z,19.47
2019-04-20T11:02:09.925Z,20.90
2019-04-20T11:03:10.017Z,20.59
2019-04-20T11:04:10.457Z,22.34
2019-04-20T11:05:09.036Z,21.64
2019-04-20T11:06:09.050Z,23.19
2019-04-20T11:07:10.335Z,25.63
2019-04-20T11:08:08.917Z,24.77
2019-04-20T11:09:09.012Z,21.86
2019-04-20T11:10:15.727Z,19.91
2019-04-20T11:11:14.866Z,20.87
2019-04-20T11:12:08.773Z,21.16
2019-04-20T11:13:09.616Z,21.05
2019-04-20T11:14:19.031Z,20.56
2019-04-20T11:15:08.661Z,22.99
2019-04-20T11:16:08.678Z,23.77
2019-04-20T11:17:08.808Z,22.92
2019-04-20T11:18:09.223Z,22.16
2019-04-20T11:19:09.452Z,21.79
2019-04-20T11:20:09.686Z,21.12
2019-04-20T11:21:09.197Z,20.74
2019-04-20T11:22:08.485Z,20.84
2019-04-20T11:23:08.538Z,21.44
2019-04-20T11:24:08.322Z,21.34
2019-04-20T11:25:08.396Z,18.43
2019-04-20T11:26:08.606Z,19.11
2019-04-20T11:27:08.221Z,20.57
2019-04-20T11:28:08.290Z,20.87
2019-04-20T11:29:08.402Z,20.40
2019-04-20T11:30:08.131Z,19.43
2019-04-20T11:31:08.162Z,19.73
2019-04-20T11:32:09.281Z,19.54
2019-04-20T11:33:07.986Z,18.95
2019-04-20T11:34:08.093Z,20.42
2019-04-20T11:35:18.069Z,19.05
2019-04-20T11:36:07.906Z,18.37
2019-04-20T11:37:08.915Z,18.66
2019-04-20T11:38:10.765Z,17.48
2019-04-20T11:39:09.019Z,18.43
2019-04-20T11:41:43.639Z,19.16
2019-04-20T11:42:43.714Z,19.14
2019-04-20T11:43:42.305Z,18.74
2019-04-20T11:44:42.512Z,18.24
2019-04-20T11:45:42.703Z,17.83
2019-04-20T11:46:42.922Z,18.80
2019-04-20T11:47:43.275Z,18.89
2019-04-20T11:48:43.271Z,20.06
2019-04-20T11:49:42.081Z,18.79
2019-04-20T11:50:43.404Z,19.29
2019-04-20T11:51:42.286Z,18.41
2019-04-20T11:52:45.911Z,19.11
2019-04-20T11:53:42.725Z,19.90
2019-04-20T11:54:42.246Z,19.42
2019-04-20T11:55:42.343Z,18.37
2019-04-20T11:56:45.241Z,18.96
2019-04-20T11:57:43.031Z,22.08
2019-04-20T11:58:42.835Z,21.70
2019-04-20T11:59:43.117Z,21.22
2019-04-20T12:00:53.220Z,19.65
2019-04-20T12:01:49.521Z,21.12
2019-04-20T12:02:44.357Z,20.14
2019-04-20T12:03:52.987Z,17.80
2019-04-20T12:04:49.449Z,16.73
2019-04-20T12:05:46.625Z,16.72
2019-04-20T12:06:41.439Z,16.33
2019-04-20T12:07:42.672Z,18.26
2019-04-20T12:08:42.717Z,18.54
2019-04-20T12:09:41.839Z,19.42
2019-04-20T12:10:44.695Z,21.47
2019-04-20T12:11:56.028Z,22.25
2019-04-20T12:12:44.364Z,21.50
2019-04-20T12:13:41.178Z,21.80
2019-04-20T12:14:41.140Z,20.32
2019-04-20T12:15:41.404Z,19.06
2019-04-20T12:16:41.658Z,17.97
2019-04-20T12:17:41.775Z,18.07
2019-04-20T12:18:42.155Z,17.96
2019-04-20T12:19:41.925Z,18.43
2019-04-20T12:20:40.990Z,19.40
2019-04-20T12:21:42.067Z,22.03
2019-04-20T12:22:42.049Z,21.75
2019-04-20T12:23:40.802Z,19.71
2019-04-20T12:24:40.796Z,21.56
2019-04-20T12:25:42.449Z,22.16
2019-04-20T12:26:40.726Z,21.39
2019-04-20T12:27:47.473Z,21.11
2019-04-20T12:28:40.608Z,22.76
2019-04-20T12:29:40.600Z,21.70
2019-04-20T12:30:41.788Z,21.22
2019-04-20T12:31:44.372Z,20.54
2019-04-20T12:32:44.981Z,20.74
2019-04-20T12:33:40.421Z,20.65
2019-04-20T12:34:41.293Z,20.86
2019-04-20T12:35:40.405Z,20.66
2019-04-20T12:36:40.309Z,19.99
2019-04-20T12:37:41.024Z,20.57
2019-04-20T12:38:41.314Z,20.09
2019-04-20T12:39:40.199Z,19.80
2019-04-20T12:40:40.154Z,20.79
2019-04-20T12:41:48.001Z,17.95
2019-04-20T12:42:41.199Z,19.99
2019-04-20T12:43:41.258Z,20.28
2019-04-20T12:44:40.004Z,17.44
2019-04-20T12:45:40.047Z,17.52
2019-04-20T12:46:39.936Z,18.01
2019-04-20T12:47:39.907Z,20.83
2019-04-20T12:48:39.900Z,20.64
2019-04-20T12:49:41.125Z,22.21
2019-04-20T12:50:39.785Z,22.22
2019-04-20T12:51:46.393Z,21.34
2019-04-20T12:52:40.685Z,22.23
2019-04-20T12:53:40.533Z,20.87
2019-04-20T12:54:42.613Z,18.63
2019-04-20T12:55:40.822Z,18.54
2019-04-20T12:56:40.443Z,19.32
2019-04-20T12:57:40.641Z,20.10
2019-04-20T12:58:43.024Z,19.63
2019-04-20T12:59:42.250Z,18.85
2019-04-20T13:00:39.462Z,20.71
2019-04-20T13:01:39.633Z,19.54
2019-04-20T13:02:39.387Z,19.35
2019-04-20T13:03:39.369Z,19.35
2019-04-20T13:04:39.497Z,19.45
2019-04-20T13:05:40.218Z,19.06
2019-04-20T13:06:39.746Z,18.68
2019-04-20T13:07:44.394Z,18.77
2019-04-20T13:08:43.611Z,19.36
2019-04-20T13:09:39.081Z,18.29
2019-04-20T13:10:40.169Z,17.69
2019-04-20T13:11:50.760Z,16.80
2019-04-20T13:12:38.977Z,16.98
2019-04-20T13:13:38.978Z,15.89